sensor_id;sensor_type;location;lat;lon;timestamp;temperature;humidity
1504;DHT22;743;47.076;15.494;2022-08-19T00:00:57;25.20;1.00
1504;DHT22;743;47.076;15.494;2022-08-19T00:03:24;25.70;99.90
1504;DHT22;743;47.076;15.494;2022-08-19T00:05:51;25.90;99.90
1504;DHT22;743;47.076;15.494;2022-08-19T00:10:48;25.60;1.00
1504;DHT22;743;47.076;15.494;2022-08-19T00:13:14;25.50;1.00
1504;DHT22;743;47.076;15.494;2022-08-19T00:15:41;25.40;1.00
1504;DHT22;743;47.076;15.494;2022-08-19T00:18:10;25.30;1.00
1504;DHT22;743;47.076;15.494;2022-08-19T00:20:38;25.50;1.00
1504;DHT22;743;47.076;15.494;2022-08-19T00:23:05;25.20;1.00
1504;DHT22;743;47.076;15.494;2022-08-19T00:28:02;25.60;1.00
1504;DHT22;743;47.076;15.494;2022-08-19T00:30:29;25.40;1.00
1504;DHT22;743;47.076;15.494;2022-08-19T00:32:56;25.60;1.00
1504;DHT22;743;47.076;15.494;2022-08-19T00:35:23;25.50;99.90
1504;DHT22;743;47.076;15.494;2022-08-19T00:37:52;25.30;1.00
1504;DHT22;743;47.076;15.494;2022-08-19T00:40:20;24.90;1.00
1504;DHT22;743;47.076;15.494;2022-08-19T00:47:44;25.10;1.00
1504;DHT22;743;47.076;15.494;2022-08-19T00:52:39;25.40;99.90
1504;DHT22;743;47.076;15.494;2022-08-19T00:55:09;25.70;1.00
1504;DHT22;743;47.076;15.494;2022-08-19T00:57:38;25.70;1.00
1504;DHT22;743;47.076;15.494;2022-08-19T01:00:07;25.30;1.00
1504;DHT22;743;47.076;15.494;2022-08-19T01:02:34;25.40;1.00
1504;DHT22;743;47.076;15.494;2022-08-19T01:09:57;25.10;1.00
1504;DHT22;743;47.076;15.494;2022-08-19T01:12:24;25.10;1.00
1504;DHT22;743;47.076;15.494;2022-08-19T01:14:52;25.30;1.00
1504;DHT22;743;47.076;15.494;2022-08-19T01:17:20;25.20;99.90
1504;DHT22;743;47.076;15.494;2022-08-19T01:19:47;25.30;1.00
1504;DHT22;743;47.076;15.494;2022-08-19T01:22:16;25.20;1.00
1504;DHT22;743;47.076;15.494;2022-08-19T01:24:47;24.90;1.00
1504;DHT22;743;47.076;15.494;2022-08-19T01:27:14;25.10;1.00
1504;DHT22;743;47.076;15.494;2022-08-19T01:29:42;25.20;1.00
1504;DHT22;743;47.076;15.494;2022-08-19T01:32:11;25.40;1.00
1504;DHT22;743;47.076;15.494;2022-08-19T01:34:39;25.40;1.00
1504;DHT22;743;47.076;15.494;2022-08-19T01:39:33;25.80;1.00
1504;DHT22;743;47.076;15.494;2022-08-19T01:42:01;26.20;1.00
1504;DHT22;743;47.076;15.494;2022-08-19T01:44:29;25.70;1.00
1504;DHT22;743;47.076;15.494;2022-08-19T01:49:24;25.30;1.00
1504;DHT22;743;47.076;15.494;2022-08-19T01:51:53;25.00;1.00
1504;DHT22;743;47.076;15.494;2022-08-19T01:54:20;24.90;1.00
1504;DHT22;743;47.076;15.494;2022-08-19T01:56:48;24.30;1.00
1504;DHT22;743;47.076;15.494;2022-08-19T01:59:17;23.90;1.00
1504;DHT22;743;47.076;15.494;2022-08-19T02:01:45;24.00;1.00
1504;DHT22;743;47.076;15.494;2022-08-19T02:06:39;24.20;1.00
1504;DHT22;743;47.076;15.494;2022-08-19T02:09:06;24.40;1.00
1504;DHT22;743;47.076;15.494;2022-08-19T02:11:34;24.90;1.00
1504;DHT22;743;47.076;15.494;2022-08-19T02:14:02;24.90;1.00
1504;DHT22;743;47.076;15.494;2022-08-19T02:18:59;25.30;1.00
1504;DHT22;743;47.076;15.494;2022-08-19T02:23:53;25.30;1.00
1504;DHT22;743;47.076;15.494;2022-08-19T02:26:21;25.20;99.90
1504;DHT22;743;47.076;15.494;2022-08-19T02:28:48;25.50;1.00
1504;DHT22;743;47.076;15.494;2022-08-19T02:31:17;25.30;1.00
1504;DHT22;743;47.076;15.494;2022-08-19T02:33:45;25.20;1.00
1504;DHT22;743;47.076;15.494;2022-08-19T02:36:14;24.70;1.00
1504;DHT22;743;47.076;15.494;2022-08-19T02:38:41;24.90;1.00
1504;DHT22;743;47.076;15.494;2022-08-19T02:41:11;25.00;1.00
1504;DHT22;743;47.076;15.494;2022-08-19T02:46:11;25.00;1.00
1504;DHT22;743;47.076;15.494;2022-08-19T02:48:38;25.20;1.00
1504;DHT22;743;47.076;15.494;2022-08-19T02:51:05;25.20;1.00
1504;DHT22;743;47.076;15.494;2022-08-19T02:53:33;25.30;1.00
1504;DHT22;743;47.076;15.494;2022-08-19T02:56:00;24.90;1.00
1504;DHT22;743;47.076;15.494;2022-08-19T02:58:27;24.90;1.00
1504;DHT22;743;47.076;15.494;2022-08-19T03:00:55;24.80;1.00
1504;DHT22;743;47.076;15.494;2022-08-19T03:05:49;25.30;1.00
1504;DHT22;743;47.076;15.494;2022-08-19T03:13:14;25.20;1.00
1504;DHT22;743;47.076;15.494;2022-08-19T03:20:39;25.50;1.00
1504;DHT22;743;47.076;15.494;2022-08-19T03:25:36;25.30;1.00
1504;DHT22;743;47.076;15.494;2022-08-19T03:28:03;25.20;1.00
1504;DHT22;743;47.076;15.494;2022-08-19T03:32:58;24.90;1.00
1504;DHT22;743;47.076;15.494;2022-08-19T03:35:25;25.00;99.90
1504;DHT22;743;47.076;15.494;2022-08-19T03:37:52;24.80;1.00
1504;DHT22;743;47.076;15.494;2022-08-19T03:40:19;25.10;1.00
1504;DHT22;743;47.076;15.494;2022-08-19T03:42:46;25.10;1.00
1504;DHT22;743;47.076;15.494;2022-08-19T03:50:09;25.60;1.00
1504;DHT22;743;47.076;15.494;2022-08-19T03:52:38;25.80;1.00
1504;DHT22;743;47.076;15.494;2022-08-19T03:55:05;25.70;1.00
1504;DHT22;743;47.076;15.494;2022-08-19T03:57:32;25.60;1.00
1504;DHT22;743;47.076;15.494;2022-08-19T04:00:00;25.40;1.00
1504;DHT22;743;47.076;15.494;2022-08-19T04:02:27;25.20;1.00
1504;DHT22;743;47.076;15.494;2022-08-19T04:04:53;24.90;1.00
1504;DHT22;743;47.076;15.494;2022-08-19T04:07:22;24.40;1.00
1504;DHT22;743;47.076;15.494;2022-08-19T04:09:50;24.20;1.00
1504;DHT22;743;47.076;15.494;2022-08-19T04:12:18;24.00;1.00
1504;DHT22;743;47.076;15.494;2022-08-19T04:14:46;24.20;1.00
1504;DHT22;743;47.076;15.494;2022-08-19T04:17:13;24.80;1.00
1504;DHT22;743;47.076;15.494;2022-08-19T04:19:43;25.10;1.00
1504;DHT22;743;47.076;15.494;2022-08-19T04:22:10;25.20;1.00
1504;DHT22;743;47.076;15.494;2022-08-19T04:24:39;24.80;1.00
1504;DHT22;743;47.076;15.494;2022-08-19T04:27:06;25.30;1.00
1504;DHT22;743;47.076;15.494;2022-08-19T04:29:33;25.30;1.00
1504;DHT22;743;47.076;15.494;2022-08-19T04:32:00;25.60;1.00
1504;DHT22;743;47.076;15.494;2022-08-19T04:34:27;25.60;1.00
1504;DHT22;743;47.076;15.494;2022-08-19T04:36:55;25.50;1.00
1504;DHT22;743;47.076;15.494;2022-08-19T04:39:23;25.30;1.00
1504;DHT22;743;47.076;15.494;2022-08-19T04:42:12;25.20;1.00
1504;DHT22;743;47.076;15.494;2022-08-19T04:44:56;25.50;1.00
1504;DHT22;743;47.076;15.494;2022-08-19T04:47:24;25.50;1.00
1504;DHT22;743;47.076;15.494;2022-08-19T04:49:50;25.40;1.00
1504;DHT22;743;47.076;15.494;2022-08-19T04:52:17;25.50;1.00
1504;DHT22;743;47.076;15.494;2022-08-19T04:54:44;25.00;1.00
1504;DHT22;743;47.076;15.494;2022-08-19T04:57:12;25.10;99.90
1504;DHT22;743;47.076;15.494;2022-08-19T05:04:34;25.10;1.00
1504;DHT22;743;47.076;15.494;2022-08-19T05:07:04;24.90;99.90
1504;DHT22;743;47.076;15.494;2022-08-19T05:09:31;24.60;1.00
1504;DHT22;743;47.076;15.494;2022-08-19T05:11:58;24.40;1.00
1504;DHT22;743;47.076;15.494;2022-08-19T05:14:27;24.50;1.00
1504;DHT22;743;47.076;15.494;2022-08-19T05:16:55;24.30;1.00
1504;DHT22;743;47.076;15.494;2022-08-19T05:19:22;24.50;1.00
1504;DHT22;743;47.076;15.494;2022-08-19T05:22:07;24.60;1.00
1504;DHT22;743;47.076;15.494;2022-08-19T05:24:51;24.50;1.00
1504;DHT22;743;47.076;15.494;2022-08-19T05:27:18;24.20;1.00
1504;DHT22;743;47.076;15.494;2022-08-19T05:29:46;23.90;1.00
1504;DHT22;743;47.076;15.494;2022-08-19T05:32:13;24.50;1.00
1504;DHT22;743;47.076;15.494;2022-08-19T05:37:07;24.90;1.00
1504;DHT22;743;47.076;15.494;2022-08-19T05:39:35;24.90;1.00
1504;DHT22;743;47.076;15.494;2022-08-19T05:42:03;25.30;1.00
1504;DHT22;743;47.076;15.494;2022-08-19T05:44:33;25.20;1.00
1504;DHT22;743;47.076;15.494;2022-08-19T05:47:02;25.10;1.00
1504;DHT22;743;47.076;15.494;2022-08-19T05:49:30;25.20;1.00
1504;DHT22;743;47.076;15.494;2022-08-19T05:51:57;25.30;1.00
1504;DHT22;743;47.076;15.494;2022-08-19T05:54:24;25.10;1.00
1504;DHT22;743;47.076;15.494;2022-08-19T05:56:53;25.00;1.00
1504;DHT22;743;47.076;15.494;2022-08-19T06:04:17;24.90;1.00
1504;DHT22;743;47.076;15.494;2022-08-19T06:06:45;25.00;1.00
1504;DHT22;743;47.076;15.494;2022-08-19T06:09:12;24.90;1.00
1504;DHT22;743;47.076;15.494;2022-08-19T06:11:40;25.00;1.00
1504;DHT22;743;47.076;15.494;2022-08-19T06:14:09;24.50;1.00
1504;DHT22;743;47.076;15.494;2022-08-19T06:16:36;24.50;1.00
1504;DHT22;743;47.076;15.494;2022-08-19T06:21:34;25.10;1.00
1504;DHT22;743;47.076;15.494;2022-08-19T06:24:03;25.00;1.00
1504;DHT22;743;47.076;15.494;2022-08-19T06:26:30;25.10;1.00
1504;DHT22;743;47.076;15.494;2022-08-19T06:31:25;25.20;1.00
1504;DHT22;743;47.076;15.494;2022-08-19T06:33:52;25.20;1.00
1504;DHT22;743;47.076;15.494;2022-08-19T06:38:47;25.70;1.00
1504;DHT22;743;47.076;15.494;2022-08-19T06:48:37;26.70;1.00
1504;DHT22;743;47.076;15.494;2022-08-19T06:51:04;26.60;1.00
1504;DHT22;743;47.076;15.494;2022-08-19T06:53:31;26.30;1.00
1504;DHT22;743;47.076;15.494;2022-08-19T06:56:00;26.60;1.00
1504;DHT22;743;47.076;15.494;2022-08-19T07:00:58;26.30;1.00
1504;DHT22;743;47.076;15.494;2022-08-19T07:03:27;26.40;1.00
1504;DHT22;743;47.076;15.494;2022-08-19T07:05:54;26.30;99.90
1504;DHT22;743;47.076;15.494;2022-08-19T07:08:23;26.20;1.00
1504;DHT22;743;47.076;15.494;2022-08-19T07:10:52;25.90;99.90
1504;DHT22;743;47.076;15.494;2022-08-19T07:13:21;25.80;1.00
1504;DHT22;743;47.076;15.494;2022-08-19T07:15:48;25.50;99.90
1504;DHT22;743;47.076;15.494;2022-08-19T07:18:16;25.40;1.00
1504;DHT22;743;47.076;15.494;2022-08-19T07:20:43;25.80;1.00
1504;DHT22;743;47.076;15.494;2022-08-19T07:23:10;25.50;1.00
1504;DHT22;743;47.076;15.494;2022-08-19T07:28:06;25.50;1.00
1504;DHT22;743;47.076;15.494;2022-08-19T07:30:37;25.40;1.00
1504;DHT22;743;47.076;15.494;2022-08-19T07:33:07;25.90;1.00
1504;DHT22;743;47.076;15.494;2022-08-19T07:35:34;25.40;1.00
1504;DHT22;743;47.076;15.494;2022-08-19T07:40:29;25.10;1.00
1504;DHT22;743;47.076;15.494;2022-08-19T07:45:23;24.70;1.00
1504;DHT22;743;47.076;15.494;2022-08-19T07:47:52;24.50;1.00
1504;DHT22;743;47.076;15.494;2022-08-19T07:50:20;24.40;1.00
1504;DHT22;743;47.076;15.494;2022-08-19T07:55:16;24.60;1.00
1504;DHT22;743;47.076;15.494;2022-08-19T07:57:43;24.40;1.00
1504;DHT22;743;47.076;15.494;2022-08-19T08:02:39;24.30;1.00
1504;DHT22;743;47.076;15.494;2022-08-19T08:07:57;24.30;1.00
1504;DHT22;743;47.076;15.494;2022-08-19T08:15:36;23.80;1.00
1504;DHT22;743;47.076;15.494;2022-08-19T08:20:31;23.70;1.00
1504;DHT22;743;47.076;15.494;2022-08-19T08:30:38;23.90;1.00
1504;DHT22;743;47.076;15.494;2022-08-19T08:33:09;23.90;1.00
1504;DHT22;743;47.076;15.494;2022-08-19T08:35:36;23.60;1.00
1504;DHT22;743;47.076;15.494;2022-08-19T08:38:04;24.00;1.00
1504;DHT22;743;47.076;15.494;2022-08-19T08:40:32;23.80;1.00
1504;DHT22;743;47.076;15.494;2022-08-19T08:43:07;23.90;1.00
1504;DHT22;743;47.076;15.494;2022-08-19T08:48:10;23.90;1.00
1504;DHT22;743;47.076;15.494;2022-08-19T08:50:42;23.90;1.00
1504;DHT22;743;47.076;15.494;2022-08-19T08:58:06;23.80;1.00
1504;DHT22;743;47.076;15.494;2022-08-19T09:00:34;23.90;1.00
1504;DHT22;743;47.076;15.494;2022-08-19T09:03:02;24.40;1.00
1504;DHT22;743;47.076;15.494;2022-08-19T09:05:35;24.10;1.00
1504;DHT22;743;47.076;15.494;2022-08-19T09:10:32;24.10;1.00
1504;DHT22;743;47.076;15.494;2022-08-19T09:13:03;24.50;1.00
1504;DHT22;743;47.076;15.494;2022-08-19T09:15:35;24.40;1.00
1504;DHT22;743;47.076;15.494;2022-08-19T09:18:04;24.30;1.00
1504;DHT22;743;47.076;15.494;2022-08-19T09:20:31;24.30;1.00
1504;DHT22;743;47.076;15.494;2022-08-19T09:23:00;24.50;1.00
1504;DHT22;743;47.076;15.494;2022-08-19T09:25:27;24.40;1.00
1504;DHT22;743;47.076;15.494;2022-08-19T09:27:56;24.70;1.00
1504;DHT22;743;47.076;15.494;2022-08-19T09:35:23;24.60;1.00
1504;DHT22;743;47.076;15.494;2022-08-19T09:37:51;25.10;1.00
1504;DHT22;743;47.076;15.494;2022-08-19T09:40:19;25.00;1.00
1504;DHT22;743;47.076;15.494;2022-08-19T09:42:47;25.60;1.00
1504;DHT22;743;47.076;15.494;2022-08-19T09:45:14;25.80;1.00
1504;DHT22;743;47.076;15.494;2022-08-19T09:50:13;27.90;1.00
1504;DHT22;743;47.076;15.494;2022-08-19T09:52:40;25.60;1.00
1504;DHT22;743;47.076;15.494;2022-08-19T09:55:08;25.60;1.00
1504;DHT22;743;47.076;15.494;2022-08-19T09:57:37;25.90;1.00
1504;DHT22;743;47.076;15.494;2022-08-19T10:00:05;25.80;1.00
1504;DHT22;743;47.076;15.494;2022-08-19T10:02:33;25.80;1.00
1504;DHT22;743;47.076;15.494;2022-08-19T10:05:01;25.70;1.00
1504;DHT22;743;47.076;15.494;2022-08-19T10:07:45;25.90;1.00
1504;DHT22;743;47.076;15.494;2022-08-19T10:10:13;26.10;1.00
1504;DHT22;743;47.076;15.494;2022-08-19T10:15:14;25.90;1.00
1504;DHT22;743;47.076;15.494;2022-08-19T10:20:09;25.90;1.00
1504;DHT22;743;47.076;15.494;2022-08-19T10:22:36;25.70;1.00
1504;DHT22;743;47.076;15.494;2022-08-19T10:25:04;25.80;1.00
1504;DHT22;743;47.076;15.494;2022-08-19T10:32:28;26.00;1.00
1504;DHT22;743;47.076;15.494;2022-08-19T10:34:55;25.90;1.00
1504;DHT22;743;47.076;15.494;2022-08-19T10:37:22;26.40;1.00
1504;DHT22;743;47.076;15.494;2022-08-19T10:44:46;25.90;1.00
1504;DHT22;743;47.076;15.494;2022-08-19T10:47:13;26.00;1.00
1504;DHT22;743;47.076;15.494;2022-08-19T10:49:42;26.30;1.00
1504;DHT22;743;47.076;15.494;2022-08-19T10:52:26;26.30;1.00
1504;DHT22;743;47.076;15.494;2022-08-19T10:55:02;26.50;1.00
1504;DHT22;743;47.076;15.494;2022-08-19T11:00:14;26.70;1.00
1504;DHT22;743;47.076;15.494;2022-08-19T11:02:41;26.80;1.00
1504;DHT22;743;47.076;15.494;2022-08-19T11:05:09;26.70;1.00
1504;DHT22;743;47.076;15.494;2022-08-19T11:07:37;26.80;1.00
1504;DHT22;743;47.076;15.494;2022-08-19T11:10:05;26.90;1.00
1504;DHT22;743;47.076;15.494;2022-08-19T11:12:32;27.00;1.00
1504;DHT22;743;47.076;15.494;2022-08-19T11:14:59;27.10;1.00
1504;DHT22;743;47.076;15.494;2022-08-19T11:22:21;27.20;1.00
1504;DHT22;743;47.076;15.494;2022-08-19T11:24:48;27.30;1.00
1504;DHT22;743;47.076;15.494;2022-08-19T11:27:15;27.00;1.00
1504;DHT22;743;47.076;15.494;2022-08-19T11:29:49;26.70;1.00
1504;DHT22;743;47.076;15.494;2022-08-19T11:32:18;27.20;1.00
1504;DHT22;743;47.076;15.494;2022-08-19T11:34:45;27.20;1.00
1504;DHT22;743;47.076;15.494;2022-08-19T11:37:12;27.00;1.00
1504;DHT22;743;47.076;15.494;2022-08-19T11:39:40;27.10;1.00
1504;DHT22;743;47.076;15.494;2022-08-19T11:42:08;26.90;1.00
1504;DHT22;743;47.076;15.494;2022-08-19T11:44:48;26.90;1.00
1504;DHT22;743;47.076;15.494;2022-08-19T11:47:15;26.90;1.00
1504;DHT22;743;47.076;15.494;2022-08-19T11:52:09;27.40;1.00
1504;DHT22;743;47.076;15.494;2022-08-19T11:54:36;27.10;1.00
1504;DHT22;743;47.076;15.494;2022-08-19T11:57:04;27.80;1.00
1504;DHT22;743;47.076;15.494;2022-08-19T11:59:31;28.00;1.00
1504;DHT22;743;47.076;15.494;2022-08-19T12:01:58;27.90;1.00
1504;DHT22;743;47.076;15.494;2022-08-19T12:04:26;28.10;1.00
1504;DHT22;743;47.076;15.494;2022-08-19T12:09:20;28.00;1.00
1504;DHT22;743;47.076;15.494;2022-08-19T12:11:47;28.00;1.00
1504;DHT22;743;47.076;15.494;2022-08-19T12:14:15;28.10;1.00
1504;DHT22;743;47.076;15.494;2022-08-19T12:19:17;28.50;1.00
1504;DHT22;743;47.076;15.494;2022-08-19T12:21:44;28.80;1.00
1504;DHT22;743;47.076;15.494;2022-08-19T12:24:11;28.50;1.00
1504;DHT22;743;47.076;15.494;2022-08-19T12:26:39;28.60;1.00
1504;DHT22;743;47.076;15.494;2022-08-19T12:29:06;28.70;1.00
1504;DHT22;743;47.076;15.494;2022-08-19T12:31:35;29.20;1.00
1504;DHT22;743;47.076;15.494;2022-08-19T12:34:02;29.10;1.00
1504;DHT22;743;47.076;15.494;2022-08-19T12:36:32;29.30;1.00
1504;DHT22;743;47.076;15.494;2022-08-19T12:38:59;29.50;1.00
1504;DHT22;743;47.076;15.494;2022-08-19T12:41:26;29.60;1.00
1504;DHT22;743;47.076;15.494;2022-08-19T12:43:53;29.50;1.00
1504;DHT22;743;47.076;15.494;2022-08-19T12:51:19;29.90;1.00
1504;DHT22;743;47.076;15.494;2022-08-19T12:53:46;30.10;99.90
1504;DHT22;743;47.076;15.494;2022-08-19T12:58:42;30.80;99.90
1504;DHT22;743;47.076;15.494;2022-08-19T13:03:37;30.90;99.90
1504;DHT22;743;47.076;15.494;2022-08-19T13:08:35;31.40;99.90
1504;DHT22;743;47.076;15.494;2022-08-19T13:11:08;31.20;99.90
1504;DHT22;743;47.076;15.494;2022-08-19T13:13:41;31.00;1.00
1504;DHT22;743;47.076;15.494;2022-08-19T13:16:09;30.50;99.90
1504;DHT22;743;47.076;15.494;2022-08-19T13:18:37;31.10;99.90
1504;DHT22;743;47.076;15.494;2022-08-19T13:21:04;30.60;99.90
1504;DHT22;743;47.076;15.494;2022-08-19T13:23:36;30.40;1.00
1504;DHT22;743;47.076;15.494;2022-08-19T13:26:03;30.20;1.00
1504;DHT22;743;47.076;15.494;2022-08-19T13:28:31;30.20;99.90
1504;DHT22;743;47.076;15.494;2022-08-19T13:31:14;29.90;99.90
1504;DHT22;743;47.076;15.494;2022-08-19T13:36:26;29.80;99.90
1504;DHT22;743;47.076;15.494;2022-08-19T13:38:54;29.70;99.90
1504;DHT22;743;47.076;15.494;2022-08-19T13:41:22;29.20;1.00
1504;DHT22;743;47.076;15.494;2022-08-19T13:43:49;29.80;1.00
1504;DHT22;743;47.076;15.494;2022-08-19T13:48:45;30.50;99.90
1504;DHT22;743;47.076;15.494;2022-08-19T13:51:12;30.80;1.00
1504;DHT22;743;47.076;15.494;2022-08-19T13:53:39;31.10;1.00
1504;DHT22;743;47.076;15.494;2022-08-19T13:56:10;30.70;99.90
1504;DHT22;743;47.076;15.494;2022-08-19T13:58:37;30.80;1.00
1504;DHT22;743;47.076;15.494;2022-08-19T14:06:02;31.80;99.90
1504;DHT22;743;47.076;15.494;2022-08-19T14:10:57;32.50;99.90
1504;DHT22;743;47.076;15.494;2022-08-19T14:13:26;32.40;99.90
1504;DHT22;743;47.076;15.494;2022-08-19T14:15:53;32.30;99.90
1504;DHT22;743;47.076;15.494;2022-08-19T14:18:19;32.50;99.90
1504;DHT22;743;47.076;15.494;2022-08-19T14:20:50;32.60;99.90
1504;DHT22;743;47.076;15.494;2022-08-19T14:23:17;32.60;99.90
1504;DHT22;743;47.076;15.494;2022-08-19T14:25:45;32.90;99.90
1504;DHT22;743;47.076;15.494;2022-08-19T14:28:12;33.00;99.90
1504;DHT22;743;47.076;15.494;2022-08-19T14:30:40;32.90;99.90
1504;DHT22;743;47.076;15.494;2022-08-19T14:33:07;32.80;99.90
1504;DHT22;743;47.076;15.494;2022-08-19T14:35:35;32.70;99.90
1504;DHT22;743;47.076;15.494;2022-08-19T14:40:32;33.00;99.90
1504;DHT22;743;47.076;15.494;2022-08-19T14:43:04;32.60;99.90
1504;DHT22;743;47.076;15.494;2022-08-19T14:45:31;32.70;99.90
1504;DHT22;743;47.076;15.494;2022-08-19T14:48:00;32.40;99.90
1504;DHT22;743;47.076;15.494;2022-08-19T14:50:27;32.10;99.90
1504;DHT22;743;47.076;15.494;2022-08-19T14:57:48;32.20;99.90
1504;DHT22;743;47.076;15.494;2022-08-19T15:00:15;33.00;99.90
1504;DHT22;743;47.076;15.494;2022-08-19T15:05:11;32.70;99.90
1504;DHT22;743;47.076;15.494;2022-08-19T15:07:38;32.60;99.90
1504;DHT22;743;47.076;15.494;2022-08-19T15:12:34;32.10;99.90
1504;DHT22;743;47.076;15.494;2022-08-19T15:15:01;31.80;99.90
1504;DHT22;743;47.076;15.494;2022-08-19T15:17:28;31.20;99.90
1504;DHT22;743;47.076;15.494;2022-08-19T15:19:56;31.20;99.90
1504;DHT22;743;47.076;15.494;2022-08-19T15:22:24;31.10;99.90
1504;DHT22;743;47.076;15.494;2022-08-19T15:24:51;30.70;99.90
1504;DHT22;743;47.076;15.494;2022-08-19T15:27:19;31.50;99.90
1504;DHT22;743;47.076;15.494;2022-08-19T15:29:46;31.50;99.90
1504;DHT22;743;47.076;15.494;2022-08-19T15:32:14;31.90;99.90
1504;DHT22;743;47.076;15.494;2022-08-19T15:34:41;31.90;99.90
1504;DHT22;743;47.076;15.494;2022-08-19T15:37:08;31.60;99.90
1504;DHT22;743;47.076;15.494;2022-08-19T15:39:36;31.20;99.90
1504;DHT22;743;47.076;15.494;2022-08-19T15:42:03;31.20;99.90
1504;DHT22;743;47.076;15.494;2022-08-19T15:46:58;30.60;99.90
1504;DHT22;743;47.076;15.494;2022-08-19T15:49:25;30.00;99.90
1504;DHT22;743;47.076;15.494;2022-08-19T15:51:52;30.00;99.90
1504;DHT22;743;47.076;15.494;2022-08-19T15:54:22;29.80;99.90
1504;DHT22;743;47.076;15.494;2022-08-19T15:56:51;30.10;99.90
1504;DHT22;743;47.076;15.494;2022-08-19T15:59:36;29.60;99.90
1504;DHT22;743;47.076;15.494;2022-08-19T16:02:21;29.70;99.90
1504;DHT22;743;47.076;15.494;2022-08-19T16:07:51;29.50;99.90
1504;DHT22;743;47.076;15.494;2022-08-19T16:10:19;29.20;99.90
1504;DHT22;743;47.076;15.494;2022-08-19T16:12:47;29.00;99.90
1504;DHT22;743;47.076;15.494;2022-08-19T16:15:14;29.00;99.90
1504;DHT22;743;47.076;15.494;2022-08-19T16:17:41;28.90;99.90
1504;DHT22;743;47.076;15.494;2022-08-19T16:20:08;28.80;99.90
1504;DHT22;743;47.076;15.494;2022-08-19T16:22:36;28.70;99.90
1504;DHT22;743;47.076;15.494;2022-08-19T16:25:04;28.70;99.90
1504;DHT22;743;47.076;15.494;2022-08-19T16:27:31;28.40;99.90
1504;DHT22;743;47.076;15.494;2022-08-19T16:30:00;28.60;99.90
1504;DHT22;743;47.076;15.494;2022-08-19T16:32:29;28.40;99.90
1504;DHT22;743;47.076;15.494;2022-08-19T16:37:23;28.10;99.90
1504;DHT22;743;47.076;15.494;2022-08-19T16:42:18;28.00;99.90
1504;DHT22;743;47.076;15.494;2022-08-19T16:44:46;28.10;99.90
1504;DHT22;743;47.076;15.494;2022-08-19T16:47:14;28.00;99.90
1504;DHT22;743;47.076;15.494;2022-08-19T16:49:42;28.20;99.90
1504;DHT22;743;47.076;15.494;2022-08-19T16:52:09;28.30;99.90
1504;DHT22;743;47.076;15.494;2022-08-19T16:57:03;27.90;99.90
1504;DHT22;743;47.076;15.494;2022-08-19T17:01:58;27.70;1.00
1504;DHT22;743;47.076;15.494;2022-08-19T17:06:55;27.60;1.00
1504;DHT22;743;47.076;15.494;2022-08-19T17:09:22;27.60;99.90
1504;DHT22;743;47.076;15.494;2022-08-19T17:11:49;27.70;1.00
1504;DHT22;743;47.076;15.494;2022-08-19T17:16:44;27.70;1.00
1504;DHT22;743;47.076;15.494;2022-08-19T17:21:39;27.50;1.00
1504;DHT22;743;47.076;15.494;2022-08-19T17:24:09;27.40;1.00
1504;DHT22;743;47.076;15.494;2022-08-19T17:26:35;27.10;1.00
1504;DHT22;743;47.076;15.494;2022-08-19T17:29:03;27.00;99.90
1504;DHT22;743;47.076;15.494;2022-08-19T17:33:59;26.50;1.00
1504;DHT22;743;47.076;15.494;2022-08-19T17:36:28;26.50;1.00
1504;DHT22;743;47.076;15.494;2022-08-19T17:41:23;26.20;1.00
1504;DHT22;743;47.076;15.494;2022-08-19T17:43:51;26.00;1.00
1504;DHT22;743;47.076;15.494;2022-08-19T17:46:25;25.90;1.00
1504;DHT22;743;47.076;15.494;2022-08-19T17:48:54;26.00;1.00
1504;DHT22;743;47.076;15.494;2022-08-19T17:53:49;25.80;1.00
1504;DHT22;743;47.076;15.494;2022-08-19T17:58:47;25.70;1.00
1504;DHT22;743;47.076;15.494;2022-08-19T18:01:14;25.70;1.00
1504;DHT22;743;47.076;15.494;2022-08-19T18:03:41;25.70;1.00
1504;DHT22;743;47.076;15.494;2022-08-19T18:06:08;25.60;1.00
1504;DHT22;743;47.076;15.494;2022-08-19T18:08:35;25.70;1.00
1504;DHT22;743;47.076;15.494;2022-08-19T18:15:59;25.70;1.00
1504;DHT22;743;47.076;15.494;2022-08-19T18:18:26;26.10;1.00
1504;DHT22;743;47.076;15.494;2022-08-19T18:23:21;25.70;1.00
1504;DHT22;743;47.076;15.494;2022-08-19T18:28:15;25.40;1.00
1504;DHT22;743;47.076;15.494;2022-08-19T18:30:43;25.40;1.00
1504;DHT22;743;47.076;15.494;2022-08-19T18:33:11;25.30;1.00
1504;DHT22;743;47.076;15.494;2022-08-19T18:38:10;25.80;1.00
1504;DHT22;743;47.076;15.494;2022-08-19T18:40:53;25.20;1.00
1504;DHT22;743;47.076;15.494;2022-08-19T18:43:38;25.30;1.00
1504;DHT22;743;47.076;15.494;2022-08-19T18:46:22;25.20;1.00
1504;DHT22;743;47.076;15.494;2022-08-19T18:49:10;25.00;1.00
1504;DHT22;743;47.076;15.494;2022-08-19T18:51:37;25.20;1.00
1504;DHT22;743;47.076;15.494;2022-08-19T18:54:04;24.90;1.00
1504;DHT22;743;47.076;15.494;2022-08-19T18:59:01;24.90;1.00
1504;DHT22;743;47.076;15.494;2022-08-19T19:01:29;24.70;1.00
1504;DHT22;743;47.076;15.494;2022-08-19T19:03:58;24.80;1.00
1504;DHT22;743;47.076;15.494;2022-08-19T19:06:30;24.90;1.00
1504;DHT22;743;47.076;15.494;2022-08-19T19:09:01;25.00;1.00
1504;DHT22;743;47.076;15.494;2022-08-19T19:11:28;24.70;1.00
1504;DHT22;743;47.076;15.494;2022-08-19T19:13:55;24.70;1.00
1504;DHT22;743;47.076;15.494;2022-08-19T19:16:25;24.70;1.00
1504;DHT22;743;47.076;15.494;2022-08-19T19:18:51;24.50;1.00
1504;DHT22;743;47.076;15.494;2022-08-19T19:21:18;24.50;33.90
1504;DHT22;743;47.076;15.494;2022-08-19T19:26:16;24.50;39.60
1504;DHT22;743;47.076;15.494;2022-08-19T19:28:43;24.40;87.40
1504;DHT22;743;47.076;15.494;2022-08-19T19:31:14;24.60;99.90
1504;DHT22;743;47.076;15.494;2022-08-19T19:36:09;24.00;99.90
1504;DHT22;743;47.076;15.494;2022-08-19T19:38:37;24.20;99.90
1504;DHT22;743;47.076;15.494;2022-08-19T19:41:04;24.30;99.90
1504;DHT22;743;47.076;15.494;2022-08-19T19:43:32;24.40;99.90
1504;DHT22;743;47.076;15.494;2022-08-19T19:45:59;24.20;99.90
1504;DHT22;743;47.076;15.494;2022-08-19T19:48:26;24.40;99.90
1504;DHT22;743;47.076;15.494;2022-08-19T19:50:53;24.50;99.90
1504;DHT22;743;47.076;15.494;2022-08-19T19:53:21;24.50;99.90
1504;DHT22;743;47.076;15.494;2022-08-19T19:55:48;24.60;99.90
1504;DHT22;743;47.076;15.494;2022-08-19T20:00:45;24.30;67.30
1504;DHT22;743;47.076;15.494;2022-08-19T20:03:12;24.40;72.10
1504;DHT22;743;47.076;15.494;2022-08-19T20:05:41;24.50;99.90
1504;DHT22;743;47.076;15.494;2022-08-19T20:08:08;24.50;99.90
1504;DHT22;743;47.076;15.494;2022-08-19T20:10:52;24.50;99.90
1504;DHT22;743;47.076;15.494;2022-08-19T20:13:22;24.60;99.00
1504;DHT22;743;47.076;15.494;2022-08-19T20:15:50;24.40;99.90
1504;DHT22;743;47.076;15.494;2022-08-19T20:20:45;24.40;99.90
1504;DHT22;743;47.076;15.494;2022-08-19T20:23:14;24.20;99.90
1504;DHT22;743;47.076;15.494;2022-08-19T20:25:41;24.30;99.90
1504;DHT22;743;47.076;15.494;2022-08-19T20:28:08;24.50;99.90
1504;DHT22;743;47.076;15.494;2022-08-19T20:30:36;24.30;99.90
1504;DHT22;743;47.076;15.494;2022-08-19T20:38:00;24.00;99.90
1504;DHT22;743;47.076;15.494;2022-08-19T20:42:54;24.30;99.90